createdAt,value
2019-02-21T00:01:39.279Z,13.30
2019-02-21T00:04:12.269Z,12.27
2019-02-21T00:06:43.479Z,13.50
2019-02-21T00:09:14.640Z,14.67
2019-02-21T00:11:45.749Z,15.13
2019-02-21T00:14:16.964Z,14.73
2019-02-21T00:16:48.083Z,14.60
2019-02-21T00:19:19.349Z,14.73
2019-02-21T00:21:50.438Z,14.40
2019-02-21T00:24:21.718Z,15.07
2019-02-21T00:26:52.844Z,15.43
2019-02-21T00:29:24.013Z,14.80
2019-02-21T00:31:55.063Z,14.77
2019-02-21T00:34:26.710Z,15.00
2019-02-21T00:36:58.288Z,16.00
2019-02-21T00:39:29.788Z,15.17
2019-02-21T00:42:01.030Z,14.77
2019-02-21T00:44:32.213Z,14.63
2019-02-21T00:47:03.422Z,15.67
2019-02-21T00:49:34.745Z,14.43
2019-02-21T00:52:06.324Z,15.27
2019-02-21T00:54:38.107Z,14.10
2019-02-21T00:57:09.133Z,13.97
2019-02-21T00:59:42.980Z,14.47
2019-02-21T01:02:14.628Z,15.80
2019-02-21T01:04:45.930Z,14.83
2019-02-21T01:07:17.073Z,14.63
2019-02-21T01:09:48.249Z,15.60
2019-02-21T01:12:19.195Z,15.40
2019-02-21T01:14:50.289Z,16.50
2019-02-21T01:17:21.174Z,15.07
2019-02-21T01:19:52.357Z,15.73
2019-02-21T01:22:23.481Z,16.13
2019-02-21T01:24:54.557Z,16.10
2019-02-21T01:27:25.557Z,15.10
2019-02-21T01:29:56.578Z,15.83
2019-02-21T01:32:27.603Z,17.70
2019-02-21T01:34:58.550Z,15.00
2019-02-21T01:37:29.605Z,17.33
2019-02-21T01:40:00.893Z,18.27
2019-02-21T01:42:31.927Z,16.47
2019-02-21T01:45:03.172Z,17.70
2019-02-21T01:47:34.891Z,17.77
2019-02-21T01:50:06.787Z,17.13
2019-02-21T01:52:38.306Z,19.43
2019-02-21T01:55:12.017Z,18.63
2019-02-21T01:57:43.146Z,18.93
2019-02-21T02:00:14.685Z,19.67
2019-02-21T02:02:45.856Z,20.23
2019-02-21T02:05:17.042Z,18.90
2019-02-21T02:07:48.048Z,19.60
2019-02-21T02:10:19.171Z,20.07
2019-02-21T02:12:50.241Z,20.83
2019-02-21T02:15:22.547Z,20.17
2019-02-21T02:17:53.557Z,21.23
2019-02-21T02:20:24.502Z,20.67
2019-02-21T02:22:56.375Z,22.60
2019-02-21T02:25:27.385Z,20.60
2019-02-21T02:27:58.272Z,21.70
2019-02-21T02:30:29.513Z,21.87
2019-02-21T02:33:00.604Z,21.23
2019-02-21T02:35:31.971Z,20.30
2019-02-21T02:38:03.016Z,21.80
2019-02-21T02:40:34.138Z,21.70
2019-02-21T02:43:06.342Z,21.97
2019-02-21T02:45:37.377Z,21.73
2019-02-21T02:48:08.415Z,22.60
2019-02-21T02:50:39.399Z,21.10
2019-02-21T02:53:10.278Z,21.40
2019-02-21T02:55:41.324Z,22.07
2019-02-21T02:58:12.298Z,22.07
2019-02-21T03:00:43.390Z,20.77
2019-02-21T03:03:14.374Z,21.23
2019-02-21T03:05:45.676Z,20.57
2019-02-21T03:08:16.582Z,21.80
2019-02-21T03:10:47.595Z,22.20
2019-02-21T03:13:18.662Z,21.00
2019-02-21T03:15:49.898Z,19.60
2019-02-21T03:18:21.093Z,19.30
2019-02-21T03:20:52.170Z,21.20
2019-02-21T03:23:23.063Z,19.80
2019-02-21T03:25:54.005Z,20.60
2019-02-21T03:28:24.888Z,21.30
2019-02-21T03:30:55.842Z,19.73
2019-02-21T03:33:26.747Z,19.60
2019-02-21T03:35:57.855Z,19.27
2019-02-21T03:38:28.860Z,20.10
2019-02-21T03:40:59.946Z,20.20
2019-02-21T03:43:31.146Z,18.93
2019-02-21T03:46:02.237Z,20.43
2019-02-21T03:48:33.287Z,19.93
2019-02-21T03:51:04.405Z,19.07
2019-02-21T03:53:35.651Z,18.90
2019-02-21T03:56:07.014Z,19.53
2019-02-21T03:58:38.244Z,19.37
2019-02-21T04:01:09.844Z,20.03
2019-02-21T04:03:40.863Z,20.87
2019-02-21T04:06:12.076Z,22.93
2019-02-21T04:08:43.157Z,24.20
2019-02-21T04:11:14.258Z,24.17
2019-02-21T04:13:45.372Z,24.20
2019-02-21T04:16:16.613Z,23.80
2019-02-21T04:18:48.188Z,22.87
2019-02-21T04:21:19.481Z,45.47
2019-02-21T04:23:50.526Z,36.10
2019-02-21T04:26:21.601Z,26.30
2019-02-21T04:28:52.570Z,33.40
2019-02-21T04:31:24.166Z,41.03
2019-02-21T04:33:55.141Z,45.03
2019-02-21T04:36:26.136Z,40.53
2019-02-21T04:38:57.604Z,36.13
2019-02-21T04:41:29.300Z,38.73
2019-02-21T04:44:00.425Z,33.00
2019-02-21T04:46:31.449Z,30.67
2019-02-21T04:49:02.524Z,28.33
2019-02-21T04:51:35.106Z,27.17
2019-02-21T04:54:06.315Z,25.87
2019-02-21T04:56:37.278Z,25.30
2019-02-21T04:59:08.187Z,26.47
2019-02-21T05:01:40.360Z,25.40
2019-02-21T05:04:11.926Z,24.47
2019-02-21T05:06:43.229Z,26.47
2019-02-21T05:09:14.706Z,27.37
2019-02-21T05:11:45.747Z,26.90
2019-02-21T05:14:16.845Z,28.57
2019-02-21T05:16:48.075Z,30.77
2019-02-21T05:19:19.274Z,42.07
2019-02-21T05:21:50.408Z,44.93
2019-02-21T05:24:21.569Z,40.30
2019-02-21T05:26:56.667Z,31.50
2019-02-21T05:29:27.622Z,29.10
2019-02-21T05:32:23.807Z,28.73
2019-02-21T05:35:13.387Z,30.67
2019-02-21T05:37:52.142Z,30.90
2019-02-21T05:40:48.096Z,31.23
2019-02-21T05:43:54.644Z,32.20
2019-02-21T05:46:50.648Z,31.50
2019-02-21T05:49:31.073Z,30.60
2019-02-21T05:52:15.129Z,29.50
2019-02-21T05:54:51.596Z,31.17
2019-02-21T05:57:47.476Z,30.27
2019-02-21T06:00:43.568Z,29.10
2019-02-21T06:03:51.550Z,30.33
2019-02-21T06:06:30.321Z,50.13
2019-02-21T06:09:08.317Z,55.13
2019-02-21T06:11:58.227Z,44.07
2019-02-21T06:14:43.856Z,45.63
2019-02-21T06:17:43.745Z,34.83
2019-02-21T06:20:30.758Z,31.10
2019-02-21T06:23:17.325Z,28.03
2019-02-21T06:25:58.254Z,26.10
2019-02-21T06:28:29.998Z,25.53
2019-02-21T06:31:04.696Z,22.70
2019-02-21T06:33:36.361Z,21.63
2019-02-21T06:36:09.491Z,21.33
2019-02-21T06:38:42.648Z,20.67
2019-02-21T06:41:14.700Z,20.37
2019-02-21T06:43:46.283Z,20.77
2019-02-21T06:46:18.068Z,20.07
2019-02-21T06:48:51.528Z,22.50
2019-02-21T06:51:23.033Z,21.63
2019-02-21T06:53:54.241Z,21.93
2019-02-21T06:56:25.880Z,24.90
2019-02-21T06:58:57.297Z,26.93
2019-02-21T07:01:29.533Z,28.83
2019-02-21T07:04:01.883Z,30.00
2019-02-21T07:06:33.840Z,27.60
2019-02-21T07:09:06.245Z,26.07
2019-02-21T07:11:38.148Z,23.77
2019-02-21T07:14:09.581Z,22.33
2019-02-21T07:16:41.526Z,16.33
2019-02-21T07:19:12.805Z,15.93
2019-02-21T07:21:44.253Z,15.07
2019-02-21T07:24:18.003Z,13.80
2019-02-21T07:26:49.047Z,13.33
2019-02-21T07:29:20.472Z,13.27
2019-02-21T07:31:51.756Z,12.83
2019-02-21T07:34:23.400Z,15.63
2019-02-21T07:36:54.921Z,15.57
2019-02-21T07:39:35.524Z,12.83
2019-02-21T07:42:00.636Z,9.93
2019-02-21T07:44:32.016Z,9.90
2019-02-21T07:47:03.388Z,7.07
2019-02-21T07:49:34.820Z,4.90
2019-02-21T07:52:06.134Z,4.33
2019-02-21T07:54:37.516Z,4.33
2019-02-21T07:57:08.998Z,5.47
2019-02-21T07:59:40.443Z,3.87
2019-02-21T08:02:12.038Z,3.30
2019-02-21T08:04:43.598Z,3.03
2019-02-21T08:07:15.242Z,2.20
2019-02-21T08:09:46.637Z,2.27
2019-02-21T08:12:18.163Z,2.53
2019-02-21T08:14:49.558Z,3.10
2019-02-21T08:17:21.197Z,2.83
2019-02-21T08:19:52.848Z,3.17
2019-02-21T08:22:24.332Z,6.17
2019-02-21T08:24:56.573Z,13.00
2019-02-21T08:27:28.438Z,4.03
2019-02-21T08:29:59.966Z,3.20
2019-02-21T08:32:36.316Z,3.80
2019-02-21T08:35:10.136Z,2.80
2019-02-21T08:37:41.175Z,3.67
2019-02-21T08:40:13.851Z,6.40
2019-02-21T08:42:45.478Z,6.23
2019-02-21T08:45:17.865Z,6.77
2019-02-21T08:47:51.510Z,5.50
2019-02-21T08:50:23.070Z,4.97
2019-02-21T08:52:56.509Z,5.80
2019-02-21T08:55:32.467Z,5.00
2019-02-21T08:58:03.626Z,5.27
2019-02-21T09:00:35.877Z,5.00
2019-02-21T09:03:10.486Z,4.70
2019-02-21T09:05:42.756Z,4.53
2019-02-21T09:08:16.540Z,5.10
2019-02-21T09:10:54.189Z,6.70
2019-02-21T09:13:26.442Z,8.37
2019-02-21T09:15:58.212Z,11.10
2019-02-21T09:18:30.021Z,8.87
2019-02-21T09:21:05.827Z,9.03
2019-02-21T09:23:38.034Z,9.63
2019-02-21T09:26:09.336Z,7.90
2019-02-21T09:28:41.043Z,8.73
2019-02-21T09:31:13.290Z,10.33
2019-02-21T09:33:45.421Z,9.77
2019-02-21T09:36:19.124Z,8.60
2019-02-21T09:38:53.014Z,8.10
2019-02-21T09:41:24.674Z,8.17
2019-02-21T09:43:56.502Z,9.87
2019-02-21T09:46:29.444Z,9.70
2019-02-21T09:49:02.983Z,10.30
2019-02-21T09:51:36.622Z,7.80
2019-02-21T09:54:08.601Z,8.87
2019-02-21T09:56:40.203Z,10.33
2019-02-21T09:59:12.657Z,9.83
2019-02-21T10:01:45.321Z,12.00
2019-02-21T10:04:17.860Z,11.60
2019-02-21T10:06:50.139Z,11.23
2019-02-21T10:09:42.502Z,10.60
2019-02-21T10:12:17.395Z,8.20
2019-02-21T10:14:59.619Z,7.73
2019-02-21T10:17:31.397Z,9.40
2019-02-21T10:20:04.895Z,8.17
2019-02-21T10:22:36.319Z,8.40
2019-02-21T10:25:12.075Z,8.27
2019-02-21T10:28:04.640Z,7.03
2019-02-21T10:30:38.738Z,7.00
2019-02-21T10:33:12.050Z,9.23
2019-02-21T10:35:45.692Z,10.53
2019-02-21T10:38:19.052Z,13.90
2019-02-21T10:40:51.347Z,11.43
2019-02-21T10:43:26.993Z,8.73
2019-02-21T10:45:58.955Z,11.57
2019-02-21T10:48:30.691Z,11.17
2019-02-21T10:51:02.645Z,12.10
2019-02-21T10:53:35.018Z,7.50
2019-02-21T10:56:08.454Z,7.17
2019-02-21T10:58:40.178Z,5.20
2019-02-21T11:01:12.085Z,4.97
2019-02-21T11:03:43.830Z,4.17
2019-02-21T11:06:15.717Z,4.57
2019-02-21T11:08:49.241Z,4.80
2019-02-21T11:11:23.064Z,4.60
2019-02-21T11:15:00.980Z,4.30
2019-02-21T11:17:37.117Z,6.20
2019-02-21T11:20:15.073Z,5.30
2019-02-21T11:23:19.365Z,6.43
2019-02-21T11:25:51.976Z,5.50
2019-02-21T11:28:32.592Z,4.33
2019-02-21T11:31:09.140Z,4.50
2019-02-21T11:34:19.860Z,4.97
2019-02-21T11:36:51.534Z,5.60
2019-02-21T11:39:57.849Z,5.43
2019-02-21T11:42:42.666Z,4.63
2019-02-21T11:45:16.737Z,4.90
2019-02-21T11:47:48.672Z,4.63
2019-02-21T11:50:20.470Z,5.00
2019-02-21T11:52:52.181Z,4.70
2019-02-21T11:55:24.390Z,4.90
2019-02-21T11:57:56.159Z,5.03
2019-02-21T12:00:28.294Z,5.73
2019-02-21T12:03:00.569Z,5.43
2019-02-21T12:05:32.487Z,5.20
2019-02-21T12:08:04.086Z,4.93
2019-02-21T12:10:36.676Z,5.20
2019-02-21T12:13:08.386Z,6.00
2019-02-21T12:15:40.188Z,5.60
2019-02-21T12:18:11.773Z,5.57
2019-02-21T12:20:45.281Z,5.70
2019-02-21T12:23:17.857Z,6.17
2019-02-21T12:25:49.775Z,13.80
2019-02-21T12:28:21.496Z,20.13
2019-02-21T12:30:56.577Z,51.93
2019-02-21T12:33:29.228Z,53.87
2019-02-21T12:36:00.895Z,39.90
2019-02-21T12:38:32.679Z,13.33
2019-02-21T12:41:03.675Z,11.70
2019-02-21T12:43:35.744Z,9.47
2019-02-21T12:46:08.479Z,19.10
2019-02-21T12:48:41.574Z,12.07
2019-02-21T12:51:13.031Z,8.60
2019-02-21T12:53:45.099Z,7.67
2019-02-21T12:56:16.923Z,7.80
2019-02-21T12:58:48.157Z,10.90
2019-02-21T13:01:20.872Z,9.20
2019-02-21T13:03:52.600Z,9.87
2019-02-21T13:06:24.465Z,9.60
2019-02-21T13:08:56.169Z,10.57
2019-02-21T13:11:41.922Z,7.60
2019-02-21T13:14:13.701Z,15.67
2019-02-21T13:16:45.530Z,9.17
2019-02-21T13:19:17.248Z,14.20
2019-02-21T13:21:50.633Z,22.37
2019-02-21T13:24:23.237Z,23.23
2019-02-21T13:26:55.257Z,15.97
2019-02-21T13:29:27.033Z,20.07
2019-02-21T13:31:58.463Z,10.83
2019-02-21T13:34:29.703Z,7.13
2019-02-21T13:37:01.815Z,6.80
2019-02-21T13:39:33.692Z,8.27
2019-02-21T13:42:05.524Z,7.87
2019-02-21T13:44:36.905Z,8.00
2019-02-21T13:47:08.778Z,8.90
2019-02-21T13:49:40.437Z,8.30
2019-02-21T13:52:12.387Z,8.43
2019-02-21T13:54:44.382Z,8.17
2019-02-21T13:57:34.961Z,7.53
2019-02-21T14:00:07.808Z,8.37
2019-02-21T14:02:40.470Z,8.70
2019-02-21T14:05:12.251Z,8.43
2019-02-21T14:07:44.279Z,9.73
2019-02-21T14:10:16.075Z,10.57
2019-02-21T14:12:49.006Z,10.33
2019-02-21T14:15:23.590Z,10.90
2019-02-21T14:17:55.433Z,11.60
2019-02-21T14:20:27.084Z,11.23
2019-02-21T14:22:58.890Z,13.37
2019-02-21T14:25:40.365Z,15.43
2019-02-21T14:28:03.540Z,16.37
2019-02-21T14:30:34.923Z,17.47
2019-02-21T14:33:06.686Z,15.23
2019-02-21T14:35:38.647Z,15.07
2019-02-21T14:38:10.599Z,15.90
2019-02-21T14:40:42.891Z,17.10
2019-02-21T14:43:16.954Z,16.97
2019-02-21T14:45:47.799Z,17.90
2019-02-21T14:48:19.097Z,15.93
2019-02-21T14:50:51.631Z,17.67
2019-02-21T14:53:23.079Z,21.57
2019-02-21T14:55:54.679Z,20.57
2019-02-21T14:58:26.041Z,22.17
2019-02-21T15:00:57.241Z,25.87
2019-02-21T15:03:28.444Z,23.17
2019-02-21T15:06:00.158Z,20.80
2019-02-21T15:08:41.466Z,21.00
2019-02-21T15:11:13.665Z,26.57
2019-02-21T15:13:45.477Z,28.20
2019-02-21T15:16:17.217Z,25.97
2019-02-21T15:18:48.597Z,36.63
2019-02-21T15:21:20.211Z,32.63
2019-02-21T15:23:51.950Z,30.20
2019-02-21T15:26:23.414Z,26.47
2019-02-21T15:28:55.138Z,21.90
2019-02-21T15:31:29.381Z,15.97
2019-02-21T15:37:03.368Z,18.47
2019-02-21T15:39:35.190Z,21.63
2019-02-21T15:42:09.428Z,20.87
2019-02-21T15:44:41.406Z,17.10
2019-02-21T15:47:13.053Z,17.73
2019-02-21T15:49:44.479Z,17.53
2019-02-21T15:52:22.362Z,16.47
2019-02-21T15:54:49.280Z,16.83
2019-02-21T15:57:21.617Z,17.07
2019-02-21T15:59:52.966Z,15.57
2019-02-21T16:02:24.599Z,13.53
2019-02-21T16:04:56.002Z,15.10
2019-02-21T16:07:27.276Z,13.97
2019-02-21T16:09:58.529Z,14.50
2019-02-21T16:12:30.399Z,12.43
2019-02-21T16:15:02.716Z,24.53
2019-02-21T16:17:37.197Z,16.83
2019-02-21T16:20:09.210Z,18.97
2019-02-21T16:22:44.384Z,21.63
2019-02-21T16:25:17.690Z,20.73
2019-02-21T16:27:48.911Z,44.23
2019-02-21T16:30:21.961Z,25.97
2019-02-21T16:32:53.425Z,18.20
2019-02-21T16:35:30.552Z,27.83
2019-02-21T16:38:02.348Z,23.27
2019-02-21T16:40:33.978Z,14.57
2019-02-21T16:43:05.775Z,9.40
2019-02-21T16:45:43.428Z,7.17
2019-02-21T16:48:11.284Z,4.57
2019-02-21T16:50:43.165Z,5.47
2019-02-21T16:53:18.295Z,9.70
2019-02-21T16:55:50.060Z,5.23
2019-02-21T16:58:21.867Z,3.57
2019-02-21T17:00:56.657Z,3.53
2019-02-21T17:03:27.162Z,14.03
2019-02-21T17:05:58.378Z,8.77
2019-02-21T17:08:30.016Z,14.07
2019-02-21T17:11:01.902Z,6.93
2019-02-21T17:13:33.510Z,14.83
2019-02-21T17:16:08.552Z,10.27
2019-02-21T17:18:41.583Z,17.90
2019-02-21T17:21:13.068Z,8.93
2019-02-21T17:23:44.389Z,7.57
2019-02-21T17:26:16.071Z,4.17
2019-02-21T17:28:47.330Z,15.00
2019-02-21T17:31:20.189Z,6.70
2019-02-21T17:33:51.556Z,5.47
2019-02-21T17:36:22.891Z,6.47
2019-02-21T17:38:54.306Z,6.40
2019-02-21T17:41:26.061Z,8.50
2019-02-21T17:43:57.746Z,3.90
2019-02-21T17:46:29.562Z,4.10
2019-02-21T17:49:00.912Z,7.03
2019-02-21T17:51:32.805Z,7.80
2019-02-21T17:54:04.068Z,8.00
2019-02-21T17:56:35.363Z,8.80
2019-02-21T17:59:08.369Z,7.10
2019-02-21T18:01:40.205Z,28.27
2019-02-21T18:04:12.117Z,10.87
2019-02-21T18:06:43.827Z,5.60
2019-02-21T18:09:16.396Z,4.60
2019-02-21T18:11:48.278Z,3.70
2019-02-21T18:14:22.929Z,3.33
2019-02-21T18:16:54.370Z,6.53
2019-02-21T18:19:25.777Z,6.13
2019-02-21T18:21:57.105Z,8.40
2019-02-21T18:24:28.440Z,14.37
2019-02-21T18:27:00.268Z,9.40
2019-02-21T18:29:31.749Z,13.03
2019-02-21T18:32:04.730Z,8.90
2019-02-21T18:34:36.133Z,6.77
2019-02-21T18:37:07.594Z,4.43
2019-02-21T18:39:38.813Z,4.63
2019-02-21T18:42:10.610Z,8.70
2019-02-21T18:44:42.496Z,10.10
2019-02-21T18:47:14.446Z,8.97
2019-02-21T18:49:45.965Z,9.20
2019-02-21T18:52:17.152Z,8.43
2019-02-21T18:54:48.314Z,6.53
2019-02-21T18:57:19.562Z,7.77
2019-02-21T18:59:51.260Z,6.37
2019-02-21T19:02:23.101Z,2.73
2019-02-21T19:04:54.815Z,3.30
2019-02-21T19:07:26.599Z,4.30
2019-02-21T19:09:57.732Z,3.07
2019-02-21T19:12:29.214Z,1.50
2019-02-21T19:15:01.010Z,2.70
2019-02-21T19:17:32.703Z,1.80
2019-02-21T19:20:04.116Z,1.77
2019-02-21T19:22:35.599Z,2.03
2019-02-21T19:25:10.030Z,0.80
2019-02-21T19:27:41.358Z,7.43
2019-02-21T19:30:18.834Z,4.83
2019-02-21T19:32:50.084Z,3.30
2019-02-21T19:35:21.795Z,2.77
2019-02-21T19:37:53.370Z,2.50
2019-02-21T19:40:24.605Z,6.73
2019-02-21T19:42:55.953Z,3.57
2019-02-21T19:45:27.637Z,2.37
2019-02-21T19:47:59.163Z,4.43
2019-02-21T19:50:31.010Z,1.47
2019-02-21T19:53:02.453Z,2.23
2019-02-21T19:55:34.034Z,1.73
2019-02-21T19:58:05.906Z,2.60
2019-02-21T20:00:40.193Z,3.97
2019-02-21T20:03:12.182Z,2.30
2019-02-21T20:05:43.589Z,1.97
2019-02-21T20:08:21.287Z,2.63
2019-02-21T20:10:47.956Z,1.97
2019-02-21T20:13:19.456Z,1.80
2019-02-21T20:15:50.747Z,1.87
2019-02-21T20:18:22.175Z,1.77
2019-02-21T20:20:54.554Z,1.57
2019-02-21T20:23:26.610Z,2.97
2019-02-21T20:25:59.660Z,0.93
2019-02-21T20:28:31.067Z,2.83
2019-02-21T20:31:02.317Z,2.80
2019-02-21T20:33:34.167Z,2.53
2019-02-21T20:36:05.925Z,2.13
2019-02-21T20:38:37.847Z,1.77
2019-02-21T20:41:10.870Z,1.20
2019-02-21T20:43:42.065Z,1.90
2019-02-21T20:46:13.109Z,3.10
2019-02-21T20:48:44.221Z,2.03
2019-02-21T20:51:16.662Z,3.07
2019-02-21T20:53:48.918Z,1.80
2019-02-21T20:56:21.840Z,2.47
2019-02-21T20:58:53.559Z,6.07
2019-02-21T21:01:24.777Z,3.30
2019-02-21T21:03:56.787Z,2.23
2019-02-21T21:06:28.451Z,3.03
2019-02-21T21:09:00.524Z,3.20
2019-02-21T21:11:33.586Z,1.60
2019-02-21T21:14:04.907Z,3.17
2019-02-21T21:16:35.932Z,2.53
2019-02-21T21:19:07.040Z,3.57
2019-02-21T21:21:38.034Z,3.93
2019-02-21T21:24:09.134Z,2.77
2019-02-21T21:26:40.085Z,4.27
2019-02-21T21:29:11.768Z,2.20
2019-02-21T21:31:44.502Z,2.97
2019-02-21T21:34:15.744Z,2.40
2019-02-21T21:36:46.671Z,4.07
2019-02-21T21:39:18.490Z,2.87
2019-02-21T21:41:50.272Z,2.07
2019-02-21T21:44:21.490Z,2.67
2019-02-21T21:46:52.579Z,2.40
2019-02-21T21:49:23.693Z,1.97
2019-02-21T21:51:54.747Z,1.73
2019-02-21T21:54:26.022Z,1.10
2019-02-21T21:56:57.031Z,2.90
2019-02-21T21:59:28.109Z,1.33
2019-02-21T22:01:59.146Z,1.32
2019-02-21T22:04:30.435Z,1.87
2019-02-21T22:07:01.436Z,2.10
2019-02-21T22:09:32.669Z,1.33
2019-02-21T22:12:04.119Z,3.10
2019-02-21T22:14:35.313Z,1.00
2019-02-21T22:17:06.454Z,2.40
2019-02-21T22:19:40.072Z,2.17
2019-02-21T22:22:11.306Z,3.50
2019-02-21T22:24:43.244Z,2.80
2019-02-21T22:27:14.580Z,1.50
2019-02-21T22:29:46.068Z,2.15
2019-02-21T22:32:17.213Z,1.40
2019-02-21T22:34:48.972Z,2.00
2019-02-21T22:37:21.422Z,2.67
2019-02-21T22:39:52.461Z,1.67
2019-02-21T22:42:24.062Z,1.20
2019-02-21T22:44:55.292Z,2.55
2019-02-21T22:47:27.442Z,1.65
2019-02-21T22:49:58.659Z,2.30
2019-02-21T22:52:30.001Z,2.62
2019-02-21T22:55:09.426Z,3.07
2019-02-21T22:57:34.775Z,3.52
2019-02-21T23:00:25.736Z,2.65
2019-02-21T23:02:58.712Z,4.08
2019-02-21T23:06:04.488Z,2.58
2019-02-21T23:08:53.184Z,2.40
2019-02-21T23:11:24.697Z,2.50
2019-02-21T23:13:56.000Z,3.02
2019-02-21T23:16:28.535Z,2.58
2019-02-21T23:18:59.743Z,4.60
2019-02-21T23:21:31.116Z,4.67
2019-02-21T23:24:02.376Z,4.10
2019-02-21T23:26:33.576Z,3.20
2019-02-21T23:29:04.838Z,6.53
2019-02-21T23:31:37.260Z,3.77
2019-02-21T23:34:12.467Z,2.97
2019-02-21T23:36:44.685Z,4.50
2019-02-21T23:39:15.916Z,2.70
2019-02-21T23:41:47.143Z,2.62
2019-02-21T23:44:18.363Z,1.80
2019-02-21T23:46:50.640Z,1.80
2019-02-21T23:49:23.354Z,1.90
2019-02-21T23:51:54.649Z,2.22
2019-02-21T23:54:25.687Z,2.60
2019-02-21T23:56:57.367Z,2.33
2019-02-21T23:59:28.567Z,2.22
